createdAt,value
2018-05-12T00:00:29.113Z,15.54
2018-05-12T00:01:29.098Z,15.63
2018-05-12T00:02:29.075Z,15.54
2018-05-12T00:03:29.123Z,15.54
2018-05-12T00:04:29.042Z,15.52
2018-05-12T00:05:29.042Z,15.44
2018-05-12T00:06:29.010Z,15.50
2018-05-12T00:07:28.997Z,15.47
2018-05-12T00:08:28.984Z,15.38
2018-05-12T00:09:28.999Z,15.40
2018-05-12T00:10:28.938Z,15.33
2018-05-12T00:11:28.943Z,15.33
2018-05-12T00:12:28.932Z,15.35
2018-05-12T00:13:28.893Z,15.20
2018-05-12T00:14:28.890Z,15.20
2018-05-12T00:15:28.866Z,15.23
2018-05-12T00:16:28.847Z,15.15
2018-05-12T00:17:28.828Z,15.15
2018-05-12T00:18:28.804Z,15.19
2018-05-12T00:19:28.840Z,15.15
2018-05-12T00:20:28.845Z,15.19
2018-05-12T00:21:28.757Z,15.08
2018-05-12T00:22:28.735Z,15.12
2018-05-12T00:23:28.725Z,15.17
2018-05-12T00:24:28.710Z,15.11
2018-05-12T00:25:28.725Z,15.10
2018-05-12T00:26:28.671Z,15.07
2018-05-12T00:27:28.662Z,15.03
2018-05-12T00:28:30.432Z,15.07
2018-05-12T00:29:28.625Z,15.05
2018-05-12T00:30:28.615Z,15.05
2018-05-12T00:31:28.581Z,15.17
2018-05-12T00:32:28.565Z,15.19
2018-05-12T00:33:28.558Z,15.19
2018-05-12T00:34:28.562Z,15.15
2018-05-12T00:35:28.545Z,15.25
2018-05-12T00:36:28.498Z,15.22
2018-05-12T00:37:28.479Z,15.25
2018-05-12T00:38:28.473Z,15.22
2018-05-12T00:39:28.470Z,15.19
2018-05-12T00:40:28.435Z,15.30
2018-05-12T00:41:28.443Z,15.30
2018-05-12T00:42:28.406Z,15.33
2018-05-12T00:43:28.390Z,15.38
2018-05-12T00:44:28.375Z,15.36
2018-05-12T00:45:28.371Z,15.36
2018-05-12T00:46:28.332Z,15.41
2018-05-12T00:47:28.331Z,15.30
2018-05-12T00:48:28.310Z,15.38
2018-05-12T00:49:28.311Z,15.38
2018-05-12T00:50:28.257Z,15.48
2018-05-12T00:51:28.262Z,15.44
2018-05-12T00:52:28.243Z,15.47
2018-05-12T00:53:28.213Z,15.41
2018-05-12T00:54:28.208Z,15.58
2018-05-12T00:55:28.179Z,15.50
2018-05-12T00:56:28.169Z,15.51
2018-05-12T00:57:28.141Z,15.48
2018-05-12T00:58:28.125Z,15.60
2018-05-12T00:59:28.111Z,15.62
2018-05-12T01:00:28.105Z,15.60
2018-05-12T01:01:28.080Z,15.65
2018-05-12T01:02:28.076Z,15.60
2018-05-12T01:03:28.069Z,15.69
2018-05-12T01:04:28.052Z,15.69
2018-05-12T01:05:28.006Z,15.68
2018-05-12T01:06:27.994Z,15.73
2018-05-12T01:07:27.975Z,15.72
2018-05-12T01:08:27.966Z,15.66
2018-05-12T01:09:27.942Z,15.70
2018-05-12T01:10:27.948Z,15.83
2018-05-12T01:11:27.915Z,15.73
2018-05-12T01:12:27.899Z,15.70
2018-05-12T01:13:27.879Z,15.77
2018-05-12T01:14:27.883Z,15.80
2018-05-12T01:15:27.844Z,15.80
2018-05-12T01:16:27.820Z,15.78
2018-05-12T01:17:27.807Z,15.81
2018-05-12T01:18:27.783Z,15.81
2018-05-12T01:19:27.790Z,15.80
2018-05-12T01:20:27.752Z,15.83
2018-05-12T01:21:27.737Z,15.83
2018-05-12T01:22:27.721Z,15.81
2018-05-12T01:23:27.719Z,15.83
2018-05-12T01:24:27.701Z,15.84
2018-05-12T01:25:27.669Z,15.84
2018-05-12T01:26:27.685Z,15.80
2018-05-12T01:27:27.650Z,15.81
2018-05-12T01:28:27.646Z,15.84
2018-05-12T01:29:27.601Z,15.85
2018-05-12T01:30:27.609Z,15.85
2018-05-12T01:31:27.580Z,15.81
2018-05-12T01:32:27.553Z,15.80
2018-05-12T01:33:27.541Z,15.76
2018-05-12T01:34:27.514Z,15.69
2018-05-12T01:35:27.505Z,15.69
2018-05-12T01:36:27.505Z,15.63
2018-05-12T01:37:27.466Z,15.60
2018-05-12T01:38:27.455Z,15.60
2018-05-12T01:39:27.432Z,15.59
2018-05-12T01:40:27.440Z,15.51
2018-05-12T01:41:27.445Z,15.51
2018-05-12T01:42:27.394Z,15.50
2018-05-12T01:43:27.380Z,15.41
2018-05-12T01:44:27.344Z,15.50
2018-05-12T01:45:27.360Z,15.48
2018-05-12T01:46:27.347Z,15.33
2018-05-12T01:47:27.308Z,15.43
2018-05-12T01:48:27.279Z,15.32
2018-05-12T01:49:27.273Z,15.41
2018-05-12T01:50:27.261Z,15.32
2018-05-12T01:51:27.225Z,15.35
2018-05-12T01:52:27.225Z,15.35
2018-05-12T01:53:27.194Z,15.33
2018-05-12T01:54:27.184Z,15.27
2018-05-12T01:55:27.158Z,15.23
2018-05-12T01:56:27.144Z,15.22
2018-05-12T01:57:27.124Z,15.29
2018-05-12T01:58:27.105Z,15.22
2018-05-12T01:59:27.088Z,15.23
2018-05-12T02:00:27.075Z,15.17
2018-05-12T02:01:27.084Z,15.17
2018-05-12T02:02:27.064Z,15.08
2018-05-12T02:03:27.029Z,15.07
2018-05-12T02:04:27.010Z,15.05
2018-05-12T02:05:26.992Z,15.11
2018-05-12T02:06:26.975Z,15.07
2018-05-12T02:07:26.974Z,15.03
2018-05-12T02:08:26.947Z,14.96
2018-05-12T02:09:26.960Z,14.92
2018-05-12T02:10:26.917Z,14.92
2018-05-12T02:11:26.909Z,14.92
2018-05-12T02:12:26.894Z,14.86
2018-05-12T02:13:26.887Z,14.93
2018-05-12T02:14:26.843Z,14.92
2018-05-12T02:15:26.956Z,14.86
2018-05-12T02:16:26.842Z,14.96
2018-05-12T02:17:26.790Z,14.82
2018-05-12T02:18:26.817Z,14.85
2018-05-12T02:19:26.797Z,14.82
2018-05-12T02:20:26.733Z,14.70
2018-05-12T02:21:26.715Z,14.69
2018-05-12T02:22:26.697Z,14.66
2018-05-12T02:23:26.733Z,14.70
2018-05-12T02:24:26.677Z,14.73
2018-05-12T02:25:26.659Z,14.66
2018-05-12T02:26:26.625Z,14.64
2018-05-12T02:27:26.619Z,14.63
2018-05-12T02:28:26.657Z,14.59
2018-05-12T02:29:26.576Z,14.64
2018-05-12T02:30:26.680Z,14.56
2018-05-12T02:31:26.560Z,14.56
2018-05-12T02:32:26.527Z,14.52
2018-05-12T02:33:26.510Z,14.52
2018-05-12T02:34:26.483Z,14.61
2018-05-12T02:35:26.466Z,14.46
2018-05-12T02:36:26.455Z,14.44
2018-05-12T02:37:26.447Z,14.52
2018-05-12T02:38:26.479Z,14.44
2018-05-12T02:39:26.429Z,14.45
2018-05-12T02:40:26.419Z,14.33
2018-05-12T02:41:26.372Z,14.36
2018-05-12T02:42:26.389Z,14.37
2018-05-12T02:43:26.343Z,14.34
2018-05-12T02:44:26.335Z,14.41
2018-05-12T02:45:26.397Z,14.30
2018-05-12T02:46:26.277Z,14.36
2018-05-12T02:47:26.325Z,14.37
2018-05-12T02:48:26.257Z,14.33
2018-05-12T02:49:26.235Z,14.33
2018-05-12T02:50:26.205Z,14.37
2018-05-12T02:51:26.188Z,14.26
2018-05-12T02:52:26.185Z,14.21
2018-05-12T02:53:26.154Z,14.22
2018-05-12T02:54:26.136Z,14.18
2018-05-12T02:55:26.118Z,14.22
2018-05-12T02:56:26.100Z,14.26
2018-05-12T02:57:26.083Z,14.21
2018-05-12T02:58:26.061Z,14.19
2018-05-12T02:59:26.047Z,14.26
2018-05-12T03:00:26.037Z,14.09
2018-05-12T03:01:26.019Z,14.04
2018-05-12T03:02:26.028Z,14.11
2018-05-12T03:03:25.979Z,14.13
2018-05-12T03:04:25.989Z,14.13
2018-05-12T03:05:25.949Z,14.15
2018-05-12T03:06:25.972Z,14.05
2018-05-12T03:07:25.912Z,14.05
2018-05-12T03:08:25.899Z,14.05
2018-05-12T03:09:25.884Z,14.03
2018-05-12T03:10:25.872Z,13.96
2018-05-12T03:11:25.891Z,13.94
2018-05-12T03:12:25.832Z,13.90
2018-05-12T03:13:25.836Z,13.91
2018-05-12T03:14:25.790Z,13.85
2018-05-12T03:15:25.763Z,13.82
2018-05-12T03:16:25.744Z,13.78
2018-05-12T03:17:25.771Z,13.72
2018-05-12T03:18:25.717Z,13.68
2018-05-12T03:19:25.688Z,13.76
2018-05-12T03:20:25.697Z,13.73
2018-05-12T03:21:25.692Z,13.68
2018-05-12T03:22:25.637Z,13.65
2018-05-12T03:23:25.646Z,13.65
2018-05-12T03:24:25.602Z,13.58
2018-05-12T03:25:25.580Z,13.63
2018-05-12T03:26:25.564Z,13.60
2018-05-12T03:27:25.550Z,13.61
2018-05-12T03:28:25.554Z,13.49
2018-05-12T03:29:25.541Z,13.43
2018-05-12T03:30:25.512Z,13.46
2018-05-12T03:31:25.483Z,13.46
2018-05-12T03:32:25.459Z,13.47
2018-05-12T03:33:25.442Z,13.42
2018-05-12T03:34:25.452Z,13.39
2018-05-12T03:35:25.400Z,13.42
2018-05-12T03:36:25.384Z,13.24
2018-05-12T03:37:25.370Z,13.35
2018-05-12T03:38:25.349Z,13.35
2018-05-12T03:39:25.331Z,13.30
2018-05-12T03:40:25.333Z,13.27
2018-05-12T03:41:25.339Z,13.19
2018-05-12T03:42:25.300Z,13.21
2018-05-12T03:43:25.264Z,13.21
2018-05-12T03:44:25.277Z,13.27
2018-05-12T03:45:25.281Z,13.23
2018-05-12T03:46:25.211Z,13.27
2018-05-12T03:47:25.189Z,13.27
2018-05-12T03:48:25.183Z,13.20
2018-05-12T03:49:25.168Z,13.14
2018-05-12T03:50:25.148Z,13.20
2018-05-12T03:51:25.114Z,13.24
2018-05-12T03:52:25.140Z,13.14
2018-05-12T03:53:25.085Z,13.21
2018-05-12T03:54:25.064Z,13.21
2018-05-12T03:55:25.039Z,13.23
2018-05-12T03:56:25.049Z,13.23
2018-05-12T03:57:25.007Z,13.14
2018-05-12T03:58:24.999Z,13.20
2018-05-12T03:59:24.988Z,13.17
2018-05-12T04:00:24.959Z,13.09
2018-05-12T04:01:24.953Z,13.16
2018-05-12T04:02:24.934Z,13.11
2018-05-12T04:03:24.998Z,13.11
2018-05-12T04:04:24.926Z,13.09
2018-05-12T04:05:24.877Z,13.13
2018-05-12T04:06:24.845Z,13.04
2018-05-12T04:07:24.825Z,13.05
2018-05-12T04:08:24.811Z,13.05
2018-05-12T04:09:24.784Z,13.05
2018-05-12T04:10:24.769Z,13.05
2018-05-12T04:11:24.770Z,12.98
2018-05-12T04:12:24.737Z,13.01
2018-05-12T04:13:24.728Z,13.02
2018-05-12T04:14:24.693Z,13.06
2018-05-12T04:15:24.681Z,13.04
2018-05-12T04:16:24.664Z,13.08
2018-05-12T04:17:24.649Z,12.99
2018-05-12T04:18:24.624Z,13.06
2018-05-12T04:19:24.613Z,13.04
2018-05-12T04:20:24.609Z,13.01
2018-05-12T04:21:24.568Z,13.11
2018-05-12T04:22:24.543Z,13.11
2018-05-12T04:23:24.529Z,13.23
2018-05-12T04:24:24.526Z,13.20
2018-05-12T04:25:24.500Z,13.20
2018-05-12T04:26:24.470Z,13.20
2018-05-12T04:27:24.461Z,13.19
2018-05-12T04:28:24.448Z,13.19
2018-05-12T04:29:24.418Z,13.16
2018-05-12T04:30:24.408Z,13.20
2018-05-12T04:31:24.396Z,13.23
2018-05-12T04:32:24.364Z,13.36
2018-05-12T04:33:24.388Z,13.26
2018-05-12T04:34:24.357Z,13.39
2018-05-12T04:35:24.314Z,13.42
2018-05-12T04:36:24.300Z,13.53
2018-05-12T04:37:24.285Z,13.54
2018-05-12T04:38:24.257Z,13.57
2018-05-12T04:39:24.249Z,13.63
2018-05-12T04:40:24.263Z,13.68
2018-05-12T04:41:24.220Z,13.82
2018-05-12T04:42:24.287Z,13.85
2018-05-12T04:43:24.253Z,13.93
2018-05-12T04:44:24.166Z,13.97
2018-05-12T04:45:24.157Z,14.12
2018-05-12T04:46:24.152Z,14.05
2018-05-12T04:47:24.099Z,14.15
2018-05-12T04:48:24.094Z,14.28
2018-05-12T04:49:24.069Z,14.34
2018-05-12T04:50:24.041Z,14.37
2018-05-12T04:51:24.040Z,14.40
2018-05-12T04:52:24.030Z,14.46
2018-05-12T04:53:23.993Z,14.52
2018-05-12T04:54:24.055Z,14.52
2018-05-12T04:55:23.948Z,14.59
2018-05-12T04:56:23.962Z,14.63
2018-05-12T04:57:23.930Z,14.56
2018-05-12T04:58:23.912Z,14.63
2018-05-12T04:59:23.896Z,14.58
2018-05-12T05:00:23.922Z,14.53
2018-05-12T05:01:23.876Z,14.67
2018-05-12T05:02:23.829Z,14.59
2018-05-12T05:03:23.807Z,14.55
2018-05-12T05:04:23.793Z,14.63
2018-05-12T05:05:23.772Z,14.61
2018-05-12T05:06:23.761Z,14.58
2018-05-12T05:07:23.749Z,14.59
2018-05-12T05:08:23.751Z,14.70
2018-05-12T05:09:23.719Z,14.69
2018-05-12T05:10:23.720Z,14.73
2018-05-12T05:11:23.682Z,14.69
2018-05-12T05:12:23.657Z,14.69
2018-05-12T05:13:23.639Z,14.77
2018-05-12T05:14:23.625Z,14.77
2018-05-12T05:15:23.694Z,14.82
2018-05-12T05:16:23.615Z,14.83
2018-05-12T05:17:23.571Z,14.93
2018-05-12T05:18:23.544Z,14.90
2018-05-12T05:19:23.533Z,14.93
2018-05-12T05:20:23.550Z,14.87
2018-05-12T05:21:23.498Z,15.07
2018-05-12T05:22:23.544Z,15.08
2018-05-12T05:23:23.479Z,15.19
2018-05-12T05:24:23.445Z,15.19
2018-05-12T05:25:23.430Z,15.19
2018-05-12T05:26:23.407Z,15.25
2018-05-12T05:27:23.390Z,15.30
2018-05-12T05:28:23.389Z,15.33
2018-05-12T05:29:23.359Z,15.33
2018-05-12T05:30:23.344Z,15.41
2018-05-12T05:31:23.328Z,15.52
2018-05-12T05:32:23.358Z,15.50
2018-05-12T05:33:23.297Z,15.47
2018-05-12T05:34:23.273Z,15.63
2018-05-12T05:35:23.263Z,15.62
2018-05-12T05:36:23.251Z,15.65
2018-05-12T05:37:23.228Z,15.77
2018-05-12T05:38:23.221Z,15.81
2018-05-12T05:39:23.185Z,15.83
2018-05-12T05:40:23.188Z,15.87
2018-05-12T05:41:23.174Z,15.91
2018-05-12T05:42:23.159Z,16.06
2018-05-12T05:43:23.119Z,16.08
2018-05-12T05:44:23.124Z,16.05
2018-05-12T05:45:23.085Z,16.14
2018-05-12T05:46:23.089Z,16.24
2018-05-12T05:47:23.076Z,16.28
2018-05-12T05:48:23.038Z,16.37
2018-05-12T05:49:23.028Z,16.47
2018-05-12T05:50:23.003Z,16.55
2018-05-12T05:51:22.988Z,16.52
2018-05-12T05:52:23.051Z,16.64
2018-05-12T05:53:23.035Z,16.65
2018-05-12T05:54:22.972Z,16.67
2018-05-12T05:55:22.957Z,16.72
2018-05-12T05:56:22.910Z,16.76
2018-05-12T05:57:22.920Z,16.88
2018-05-12T05:58:22.887Z,16.77
2018-05-12T05:59:22.864Z,16.84
2018-05-12T06:00:22.867Z,16.92
2018-05-12T06:01:22.853Z,16.84
2018-05-12T06:02:22.823Z,16.90
2018-05-12T06:03:22.808Z,16.91
2018-05-12T06:04:22.788Z,16.95
2018-05-12T06:05:22.810Z,16.91
2018-05-12T06:06:22.761Z,16.90
2018-05-12T06:07:22.747Z,16.88
2018-05-12T06:08:22.728Z,16.90
2018-05-12T06:09:22.712Z,16.83
2018-05-12T06:10:22.712Z,16.90
2018-05-12T06:11:22.690Z,16.77
2018-05-12T06:12:22.738Z,16.70
2018-05-12T06:13:22.688Z,16.70
2018-05-12T06:14:22.652Z,16.74
2018-05-12T06:15:22.656Z,16.65
2018-05-12T06:16:22.608Z,16.69
2018-05-12T06:17:22.607Z,16.74
2018-05-12T06:18:22.651Z,16.64
2018-05-12T06:19:22.608Z,16.67
2018-05-12T06:20:22.559Z,16.69
2018-05-12T06:21:22.538Z,16.70
2018-05-12T06:22:22.544Z,16.69
2018-05-12T06:23:22.532Z,16.72
2018-05-12T06:24:22.510Z,16.74
2018-05-12T06:25:22.482Z,16.73
2018-05-12T06:26:22.462Z,16.77
2018-05-12T06:27:22.537Z,16.84
2018-05-12T06:28:22.436Z,16.82
2018-05-12T06:29:22.448Z,16.95
2018-05-12T06:30:22.416Z,16.97
2018-05-12T06:31:22.407Z,17.09
2018-05-12T06:32:22.369Z,17.04
2018-05-12T06:33:22.357Z,17.19
2018-05-12T06:34:22.350Z,17.10
2018-05-12T06:35:22.355Z,17.10
2018-05-12T06:36:22.319Z,17.35
2018-05-12T06:37:22.306Z,17.34
2018-05-12T06:38:22.296Z,17.39
2018-05-12T06:39:22.276Z,17.57
2018-05-12T06:40:22.275Z,17.71
2018-05-12T06:41:22.267Z,17.76
2018-05-12T06:42:22.241Z,17.90
2018-05-12T06:43:22.222Z,18.06
2018-05-12T06:44:22.236Z,18.15
2018-05-12T06:45:22.206Z,18.27
2018-05-12T06:46:22.184Z,18.26
2018-05-12T06:47:22.193Z,18.33
2018-05-12T06:48:22.187Z,18.48
2018-05-12T06:49:22.180Z,18.61
2018-05-12T06:50:22.149Z,18.64
2018-05-12T06:51:22.156Z,18.75
2018-05-12T06:52:22.233Z,18.78
2018-05-12T06:53:22.132Z,18.71
2018-05-12T06:54:22.126Z,18.71
2018-05-12T06:55:22.094Z,18.66
2018-05-12T06:56:22.088Z,18.79
2018-05-12T06:57:22.085Z,18.83
2018-05-12T06:58:22.077Z,18.86
2018-05-12T06:59:22.056Z,18.82
2018-05-12T07:00:22.047Z,18.91
2018-05-12T07:01:22.085Z,18.97
2018-05-12T07:02:22.052Z,19.13
2018-05-12T07:03:22.014Z,19.20
2018-05-12T07:04:22.010Z,19.17
2018-05-12T07:05:22.017Z,19.13
2018-05-12T07:06:21.999Z,19.27
2018-05-12T07:07:21.982Z,19.42
2018-05-12T07:08:21.995Z,19.41
2018-05-12T07:09:21.978Z,19.54
2018-05-12T07:10:21.968Z,19.63
2018-05-12T07:11:21.948Z,19.67
2018-05-12T07:12:21.957Z,19.72
2018-05-12T07:13:21.947Z,19.84
2018-05-12T07:14:21.931Z,19.86
2018-05-12T07:15:21.913Z,19.90
2018-05-12T07:16:21.922Z,20.02
2018-05-12T07:17:21.915Z,20.09
2018-05-12T07:18:21.894Z,20.14
2018-05-12T07:19:21.959Z,20.17
2018-05-12T07:20:21.880Z,20.22
2018-05-12T07:21:21.861Z,20.34
2018-05-12T07:22:21.867Z,20.36
2018-05-12T07:23:21.855Z,20.44
2018-05-12T07:24:21.835Z,20.39
2018-05-12T07:25:21.825Z,20.52
2018-05-12T07:26:21.840Z,20.60
2018-05-12T07:27:21.820Z,20.64
2018-05-12T07:28:21.800Z,20.65
2018-05-12T07:29:21.792Z,20.85
2018-05-12T07:30:21.778Z,20.77
2018-05-12T07:31:21.802Z,20.85
2018-05-12T07:32:21.784Z,20.88
2018-05-12T07:33:21.808Z,20.92
2018-05-12T07:34:21.765Z,20.92
2018-05-12T07:35:21.747Z,20.89
2018-05-12T07:36:21.718Z,20.95
2018-05-12T07:37:21.725Z,21.00
2018-05-12T07:38:21.706Z,20.95
2018-05-12T07:39:21.687Z,20.89
2018-05-12T07:40:21.703Z,20.97
2018-05-12T07:41:21.663Z,20.90
2018-05-12T07:42:21.657Z,20.95
2018-05-12T07:43:21.644Z,20.93
2018-05-12T07:44:21.662Z,20.86
2018-05-12T07:45:21.654Z,20.83
2018-05-12T07:46:21.638Z,20.83
2018-05-12T07:47:21.613Z,20.98
2018-05-12T07:48:21.597Z,20.92
2018-05-12T07:49:21.588Z,21.07
2018-05-12T07:50:21.619Z,21.19
2018-05-12T07:51:21.579Z,21.19
2018-05-12T07:52:21.556Z,21.25
2018-05-12T07:53:21.539Z,21.23
2018-05-12T07:54:21.524Z,21.35
2018-05-12T07:55:21.523Z,21.41
2018-05-12T07:56:21.513Z,21.45
2018-05-12T07:57:21.496Z,21.43
2018-05-12T07:58:21.494Z,21.53
2018-05-12T07:59:21.481Z,21.50
2018-05-12T08:00:21.468Z,21.43
2018-05-12T08:01:21.460Z,21.38
2018-05-12T08:02:21.446Z,21.22
2018-05-12T08:03:21.498Z,21.30
2018-05-12T08:04:21.449Z,21.34
2018-05-12T08:05:21.431Z,21.26
2018-05-12T08:06:21.432Z,21.43
2018-05-12T08:07:21.429Z,21.44
2018-05-12T08:08:21.378Z,21.53
2018-05-12T08:09:21.420Z,21.73
2018-05-12T08:10:21.359Z,21.77
2018-05-12T08:11:21.343Z,21.80
2018-05-12T08:12:21.340Z,21.82
2018-05-12T08:13:21.320Z,21.91
2018-05-12T08:14:21.331Z,21.93
2018-05-12T08:15:21.310Z,22.01
2018-05-12T08:16:21.299Z,21.96
2018-05-12T08:17:21.305Z,22.04
2018-05-12T08:18:21.288Z,22.06
2018-05-12T08:19:21.271Z,21.93
2018-05-12T08:20:21.266Z,22.04
2018-05-12T08:21:21.250Z,22.01
2018-05-12T08:22:21.221Z,21.93
2018-05-12T08:23:21.215Z,21.98
2018-05-12T08:24:21.208Z,22.03
2018-05-12T08:25:21.206Z,21.97
2018-05-12T08:26:21.204Z,22.15
2018-05-12T08:27:21.205Z,22.09
2018-05-12T08:28:21.182Z,22.16
2018-05-12T08:29:21.183Z,22.22
2018-05-12T08:30:21.169Z,22.30
2018-05-12T08:31:21.146Z,22.34
2018-05-12T08:32:21.122Z,22.34
2018-05-12T08:33:21.112Z,22.36
2018-05-12T08:34:21.115Z,22.37
2018-05-12T08:35:21.090Z,22.43
2018-05-12T08:36:21.078Z,22.44
2018-05-12T08:37:21.117Z,22.41
2018-05-12T08:38:21.088Z,22.38
2018-05-12T08:39:21.047Z,22.46
2018-05-12T08:40:21.145Z,22.49
2018-05-12T08:41:21.031Z,22.43
2018-05-12T08:42:21.022Z,22.43
2018-05-12T08:43:21.008Z,22.51
2018-05-12T08:44:21.047Z,22.55
2018-05-12T08:45:20.989Z,22.51
2018-05-12T08:46:20.978Z,22.55
2018-05-12T08:47:20.963Z,22.43
2018-05-12T08:48:21.026Z,22.44
2018-05-12T08:49:20.989Z,22.41
2018-05-12T08:50:20.980Z,22.49
2018-05-12T08:51:20.958Z,22.58
2018-05-12T08:52:20.909Z,22.59
2018-05-12T08:53:20.940Z,22.48
2018-05-12T08:54:20.889Z,22.49
2018-05-12T08:55:20.966Z,22.53
2018-05-12T08:56:20.889Z,22.51
2018-05-12T08:57:20.862Z,22.58
2018-05-12T08:58:20.849Z,22.46
2018-05-12T08:59:20.847Z,22.44
2018-05-12T09:00:20.838Z,22.55
2018-05-12T09:01:20.819Z,22.70
2018-05-12T09:02:20.817Z,22.74
2018-05-12T09:03:20.819Z,22.76
2018-05-12T09:04:20.786Z,22.83
2018-05-12T09:05:20.797Z,23.01
2018-05-12T09:06:20.782Z,23.03
2018-05-12T09:07:20.786Z,23.06
2018-05-12T09:08:20.784Z,23.23
2018-05-12T09:09:20.743Z,23.23
2018-05-12T09:10:20.728Z,23.37
2018-05-12T09:11:20.728Z,23.45
2018-05-12T09:12:20.706Z,23.56
2018-05-12T09:13:20.776Z,23.59
2018-05-12T09:14:20.695Z,23.54
2018-05-12T09:15:20.701Z,23.56
2018-05-12T09:16:20.670Z,23.52
2018-05-12T09:17:20.664Z,23.42
2018-05-12T09:18:20.691Z,23.18
2018-05-12T09:19:20.703Z,23.14
2018-05-12T09:20:20.659Z,23.22
2018-05-12T09:21:20.647Z,23.34
2018-05-12T09:22:20.635Z,23.41
2018-05-12T09:23:20.607Z,23.46
2018-05-12T09:24:20.647Z,23.45
2018-05-12T09:25:20.626Z,23.59
2018-05-12T09:26:20.588Z,23.55
2018-05-12T09:27:20.577Z,23.41
2018-05-12T09:28:20.582Z,23.51
2018-05-12T09:29:20.672Z,23.48
2018-05-12T09:30:20.549Z,23.49
2018-05-12T09:31:20.534Z,23.42
2018-05-12T09:32:20.517Z,23.51
2018-05-12T09:33:20.509Z,23.44
2018-05-12T09:34:20.502Z,23.54
2018-05-12T09:35:20.494Z,23.55
2018-05-12T09:36:20.483Z,23.48
2018-05-12T09:37:20.508Z,23.45
2018-05-12T09:38:20.466Z,23.48
2018-05-12T09:39:20.508Z,23.41
2018-05-12T09:40:20.480Z,23.42
2018-05-12T09:41:20.452Z,23.42
2018-05-12T09:42:20.499Z,23.48
2018-05-12T09:43:20.425Z,23.56
2018-05-12T09:44:20.426Z,23.73
2018-05-12T09:45:20.400Z,23.66
2018-05-12T09:46:20.401Z,23.69
2018-05-12T09:47:20.399Z,23.74
2018-05-12T09:48:20.396Z,23.76
2018-05-12T09:49:20.372Z,23.78
2018-05-12T09:50:20.380Z,23.71
2018-05-12T09:51:20.373Z,23.63
2018-05-12T09:52:20.444Z,23.52
2018-05-12T09:53:20.329Z,23.56
2018-05-12T09:54:20.304Z,23.49
2018-05-12T09:55:20.309Z,23.44
2018-05-12T09:56:20.293Z,23.59
2018-05-12T09:57:20.289Z,23.63
2018-05-12T09:58:20.301Z,23.71
2018-05-12T09:59:20.262Z,23.81
2018-05-12T10:00:20.252Z,23.89
2018-05-12T10:01:20.247Z,23.66
2018-05-12T10:02:20.255Z,23.46
2018-05-12T10:03:20.246Z,23.56
2018-05-12T10:04:20.229Z,23.56
2018-05-12T10:05:20.220Z,23.55
2018-05-12T10:06:20.203Z,23.55
2018-05-12T10:07:20.188Z,23.56
2018-05-12T10:08:20.177Z,23.70
2018-05-12T10:09:20.199Z,23.73
2018-05-12T10:10:20.177Z,23.82
2018-05-12T10:11:20.178Z,23.82
2018-05-12T10:12:20.144Z,23.74
2018-05-12T10:13:20.151Z,23.81
2018-05-12T10:14:20.151Z,23.63
2018-05-12T10:15:20.123Z,23.64
2018-05-12T10:16:20.120Z,23.67
2018-05-12T10:17:20.097Z,23.81
2018-05-12T10:18:20.093Z,23.91
2018-05-12T10:19:20.137Z,24.01
2018-05-12T10:20:20.095Z,24.06
2018-05-12T10:21:20.072Z,24.04
2018-05-12T10:22:20.054Z,24.04
2018-05-12T10:23:20.085Z,24.10
2018-05-12T10:24:20.051Z,24.13
2018-05-12T10:25:20.028Z,24.16
2018-05-12T10:26:20.113Z,24.13
2018-05-12T10:27:20.080Z,24.08
2018-05-12T10:28:20.001Z,24.06
2018-05-12T10:29:20.022Z,24.01
2018-05-12T10:30:19.990Z,24.04
2018-05-12T10:31:20.002Z,24.03
2018-05-12T10:32:19.989Z,23.92
2018-05-12T10:33:19.984Z,23.98
2018-05-12T10:34:19.983Z,23.96
2018-05-12T10:35:19.936Z,24.06
2018-05-12T10:36:19.955Z,24.01
2018-05-12T10:37:19.919Z,24.16
2018-05-12T10:38:19.901Z,24.25
2018-05-12T10:39:19.896Z,24.25
2018-05-12T10:40:19.933Z,24.37
2018-05-12T10:41:19.895Z,24.44
2018-05-12T10:42:19.889Z,24.53
2018-05-12T10:43:19.877Z,24.56
2018-05-12T10:44:19.863Z,24.60
2018-05-12T10:45:19.854Z,24.74
2018-05-12T10:46:19.840Z,24.75
2018-05-12T10:47:19.827Z,24.90
2018-05-12T10:48:19.824Z,24.79
2018-05-12T10:49:19.810Z,24.79
2018-05-12T10:50:19.802Z,24.70
2018-05-12T10:51:19.790Z,24.79
2018-05-12T10:52:19.783Z,24.85
2018-05-12T10:53:19.782Z,24.90
2018-05-12T10:54:19.762Z,24.85
2018-05-12T10:55:19.762Z,24.85
2018-05-12T10:56:19.750Z,24.86
2018-05-12T10:57:19.739Z,24.97
2018-05-12T10:58:19.740Z,25.12
2018-05-12T10:59:19.730Z,24.85
2018-05-12T11:00:19.737Z,24.59
2018-05-12T11:01:19.703Z,24.45
2018-05-12T11:02:19.719Z,24.38
2018-05-12T11:03:19.701Z,24.43
2018-05-12T11:04:19.694Z,24.48
2018-05-12T11:05:19.668Z,24.48
2018-05-12T11:06:19.685Z,24.56
2018-05-12T11:07:19.654Z,24.59
2018-05-12T11:08:19.650Z,24.60
2018-05-12T11:09:19.667Z,24.58
2018-05-12T11:10:19.642Z,24.70
2018-05-12T11:11:19.645Z,24.66
2018-05-12T11:12:19.662Z,24.76
2018-05-12T11:13:19.624Z,24.81
2018-05-12T11:14:19.593Z,24.86
2018-05-12T11:15:19.591Z,24.70
2018-05-12T11:16:19.594Z,24.70
2018-05-12T11:17:19.588Z,24.70
2018-05-12T11:18:19.587Z,24.71
2018-05-12T11:19:19.589Z,24.70
2018-05-12T11:20:19.630Z,24.59
2018-05-12T11:21:19.559Z,24.48
2018-05-12T11:22:19.545Z,24.51
2018-05-12T11:23:19.532Z,24.58
2018-05-12T11:24:19.540Z,24.63
2018-05-12T11:25:19.524Z,24.66
2018-05-12T11:26:19.494Z,24.60
2018-05-12T11:27:19.481Z,24.70
2018-05-12T11:28:19.513Z,24.59
2018-05-12T11:29:19.469Z,24.68
2018-05-12T11:30:19.468Z,24.68
2018-05-12T11:31:19.454Z,24.66
2018-05-12T11:32:19.472Z,24.79
2018-05-12T11:33:19.431Z,24.78
2018-05-12T11:34:19.428Z,24.82
2018-05-12T11:35:19.434Z,24.79
2018-05-12T11:36:19.402Z,24.91
2018-05-12T11:37:19.394Z,24.99
2018-05-12T11:38:19.384Z,25.03
2018-05-12T11:39:19.379Z,25.09
2018-05-12T11:40:19.366Z,25.11
2018-05-12T11:41:19.384Z,25.18
2018-05-12T11:42:19.386Z,25.22
2018-05-12T11:43:19.385Z,25.23
2018-05-12T11:44:19.361Z,25.16
2018-05-12T11:45:19.382Z,25.08
2018-05-12T11:46:19.318Z,24.94
2018-05-12T11:47:19.312Z,25.03
2018-05-12T11:48:19.310Z,24.90
2018-05-12T11:49:19.316Z,24.99
2018-05-12T11:50:19.294Z,25.15
2018-05-12T11:51:19.313Z,25.26
2018-05-12T11:52:19.274Z,25.22
2018-05-12T11:53:19.262Z,25.26
2018-05-12T11:54:19.268Z,25.31
2018-05-12T11:55:19.256Z,25.38
2018-05-12T11:56:19.240Z,25.51
2018-05-12T11:57:19.225Z,25.56
2018-05-12T11:58:19.335Z,25.52
2018-05-12T11:59:19.213Z,25.55
2018-05-12T12:00:19.194Z,25.58
2018-05-12T12:01:19.221Z,25.55
2018-05-12T12:02:19.205Z,25.58
2018-05-12T12:03:19.218Z,25.55
2018-05-12T12:04:19.170Z,25.56
2018-05-12T12:05:19.151Z,25.38
2018-05-12T12:06:19.179Z,25.12
2018-05-12T12:07:19.285Z,25.19
2018-05-12T12:08:19.137Z,25.28
2018-05-12T12:09:19.120Z,25.22
2018-05-12T12:10:19.151Z,25.41
2018-05-12T12:11:19.106Z,25.45
2018-05-12T12:12:19.097Z,25.58
2018-05-12T12:13:19.146Z,25.56
2018-05-12T12:14:19.085Z,25.59
2018-05-12T12:15:19.080Z,25.66
2018-05-12T12:16:19.068Z,25.67
2018-05-12T12:17:19.079Z,25.73
2018-05-12T12:18:19.070Z,25.78
2018-05-12T12:19:19.032Z,25.96
2018-05-12T12:20:19.045Z,26.05
2018-05-12T12:21:19.035Z,26.12
2018-05-12T12:22:19.013Z,26.26
2018-05-12T12:23:19.016Z,26.30
2018-05-12T12:24:19.000Z,26.36
2018-05-12T12:25:18.994Z,26.41
2018-05-12T12:26:19.026Z,26.43
2018-05-12T12:27:18.977Z,26.46
2018-05-12T12:28:18.988Z,26.43
2018-05-12T12:29:18.971Z,26.41
2018-05-12T12:30:18.957Z,26.41
2018-05-12T12:31:18.950Z,26.33
2018-05-12T12:32:18.948Z,26.45
2018-05-12T12:33:18.941Z,26.26
2018-05-12T12:34:18.969Z,26.12
2018-05-12T12:35:18.938Z,26.27
2018-05-12T12:36:18.916Z,26.34
2018-05-12T12:37:18.905Z,26.45
2018-05-12T12:38:18.891Z,26.64
2018-05-12T12:39:18.884Z,26.79
2018-05-12T12:40:18.877Z,26.80
2018-05-12T12:41:18.879Z,26.45
2018-05-12T12:42:18.852Z,26.36
2018-05-12T12:43:18.856Z,26.36
2018-05-12T12:44:18.858Z,26.12
2018-05-12T12:45:18.832Z,26.20
2018-05-12T12:46:18.830Z,26.34
2018-05-12T12:47:18.828Z,26.61
2018-05-12T12:48:18.822Z,26.76
2018-05-12T12:49:18.806Z,26.73
2018-05-12T12:50:18.801Z,26.70
2018-05-12T12:51:18.795Z,26.86
2018-05-12T12:52:18.789Z,27.10